createdAt,value
2019-04-03T00:00:36.279Z,8.58
2019-04-03T00:03:43.874Z,8.58
2019-04-03T00:06:51.290Z,8.72
2019-04-03T00:09:58.330Z,8.70
2019-04-03T00:13:05.076Z,8.51
2019-04-03T00:16:15.334Z,8.65
2019-04-03T00:19:21.318Z,8.56
2019-04-03T00:22:29.089Z,8.59
2019-04-03T00:25:36.329Z,8.61
2019-04-03T00:32:58.326Z,8.21
2019-04-03T00:36:04.570Z,8.29
2019-04-03T00:39:10.706Z,8.33
2019-04-03T00:42:17.713Z,8.27
2019-04-03T00:45:25.244Z,8.27
2019-04-03T00:48:32.589Z,8.16
2019-04-03T00:51:39.883Z,7.90
2019-04-03T00:54:47.275Z,7.90
2019-04-03T00:57:56.278Z,7.79
2019-04-03T01:01:03.403Z,7.79
2019-04-03T01:04:10.796Z,7.87
2019-04-03T01:07:18.294Z,7.86
2019-04-03T01:10:26.285Z,7.81
2019-04-03T01:13:33.600Z,7.77
2019-04-03T01:16:41.273Z,7.50
2019-04-03T01:19:48.283Z,7.50
2019-04-03T01:22:55.245Z,7.57
2019-04-03T01:26:02.480Z,7.54
2019-04-03T01:29:10.607Z,7.50
2019-04-03T01:32:18.705Z,7.32
2019-04-03T01:37:55.127Z,7.26
2019-04-03T01:41:02.472Z,7.16
2019-04-03T01:44:10.290Z,7.09
2019-04-03T01:47:17.797Z,6.99
2019-04-03T01:50:28.303Z,6.81
2019-04-03T01:53:34.531Z,6.77
2019-04-03T01:56:41.752Z,6.67
2019-04-03T01:59:48.911Z,6.67
2019-04-03T02:02:56.047Z,6.66
2019-04-03T02:06:03.305Z,6.60
2019-04-03T02:09:11.441Z,6.57
2019-04-03T02:12:19.762Z,6.44
2019-04-03T02:15:27.790Z,6.44
2019-04-03T02:18:35.269Z,6.44
2019-04-03T02:21:42.652Z,6.39
2019-04-03T02:24:50.395Z,6.15
2019-04-03T02:27:57.544Z,6.19
2019-04-03T02:31:05.738Z,6.17
2019-04-03T02:34:13.336Z,6.17
2019-04-03T02:37:20.306Z,6.14
2019-04-03T02:40:31.216Z,6.11
2019-04-03T02:43:36.349Z,6.11
2019-04-03T02:46:43.648Z,5.99
2019-04-03T02:49:50.733Z,5.99
2019-04-03T02:52:59.091Z,6.04
2019-04-03T02:56:06.962Z,5.99
2019-04-03T02:59:14.471Z,5.94
2019-04-03T03:02:21.641Z,5.90
2019-04-03T03:05:29.228Z,5.99
2019-04-03T03:08:40.528Z,5.99
2019-04-03T03:11:45.767Z,6.02
2019-04-03T03:14:52.962Z,6.03
2019-04-03T03:18:01.441Z,6.05
2019-04-03T03:21:11.664Z,6.00
2019-04-03T03:24:18.324Z,6.06
2019-04-03T03:27:25.459Z,6.08
2019-04-03T03:30:44.239Z,6.09
2019-04-03T03:33:42.690Z,6.09
2019-04-03T03:36:50.569Z,6.10
2019-04-03T03:39:58.360Z,5.95
2019-04-03T03:43:06.695Z,6.03
2019-04-03T03:46:14.543Z,6.02
2019-04-03T03:49:22.265Z,5.95
2019-04-03T03:52:29.842Z,5.95
2019-04-03T03:55:37.609Z,6.11
2019-04-03T03:58:46.133Z,6.14
2019-04-03T04:01:53.567Z,6.28
2019-04-03T04:05:01.679Z,6.22
2019-04-03T04:08:10.479Z,6.22
2019-04-03T04:11:19.243Z,6.26
2019-04-03T04:14:26.421Z,6.32
2019-04-03T04:17:33.625Z,6.32
2019-04-03T04:20:40.636Z,6.25
2019-04-03T04:23:47.804Z,6.31
2019-04-03T04:26:55.138Z,6.23
2019-04-03T04:30:02.876Z,6.25
2019-04-03T04:33:10.671Z,6.17
2019-04-03T04:36:17.599Z,6.06
2019-04-03T04:39:24.625Z,6.10
2019-04-03T04:42:34.410Z,6.10
2019-04-03T04:45:42.688Z,6.03
2019-04-03T04:48:51.383Z,5.94
2019-04-03T04:51:58.443Z,5.99
2019-04-03T04:55:06.990Z,5.99
2019-04-03T04:58:14.624Z,5.85
2019-04-03T05:01:21.719Z,5.82
2019-04-03T05:04:28.672Z,5.96
2019-04-03T05:07:35.865Z,5.79
2019-04-03T05:10:43.483Z,5.98
2019-04-03T05:13:49.628Z,6.09
2019-04-03T05:16:57.289Z,6.09
2019-04-03T05:20:05.322Z,6.13
2019-04-03T05:23:12.990Z,6.31
2019-04-03T05:26:21.478Z,6.31
2019-04-03T05:29:29.414Z,6.45
2019-04-03T05:32:36.516Z,6.55
2019-04-03T05:35:46.478Z,7.06
2019-04-03T05:38:53.540Z,7.06
2019-04-03T05:42:01.662Z,6.94
2019-04-03T05:45:09.730Z,7.18
2019-04-03T05:48:18.407Z,7.48
2019-04-03T05:51:25.991Z,7.61
2019-04-03T05:54:33.063Z,7.72
2019-04-03T05:57:40.607Z,7.95
2019-04-03T06:00:49.194Z,8.06
2019-04-03T06:03:56.916Z,8.25
2019-04-03T06:07:04.385Z,8.24
2019-04-03T06:10:12.261Z,8.36
2019-04-03T06:13:19.907Z,8.57
2019-04-03T06:16:27.486Z,8.58
2019-04-03T06:19:36.470Z,8.66
2019-04-03T06:22:43.748Z,8.84
2019-04-03T06:25:50.948Z,8.85
2019-04-03T06:28:58.271Z,8.74
2019-04-03T06:32:06.362Z,8.95
2019-04-03T06:35:14.421Z,8.99
2019-04-03T06:38:22.474Z,9.06
2019-04-03T06:41:31.144Z,9.07
2019-04-03T06:44:38.336Z,9.21
2019-04-03T06:47:45.553Z,9.18
2019-04-03T06:50:54.251Z,9.52
2019-04-03T06:54:01.891Z,9.52
2019-04-03T06:57:08.917Z,9.85
2019-04-03T07:00:18.317Z,10.15
2019-04-03T07:03:26.225Z,10.42
2019-04-03T07:06:33.796Z,10.71
2019-04-03T07:09:41.588Z,10.97
2019-04-03T07:12:49.512Z,10.85
2019-04-03T07:15:57.216Z,10.85
2019-04-03T07:19:06.034Z,11.09
2019-04-03T07:22:13.292Z,11.09
2019-04-03T07:25:20.518Z,11.33
2019-04-03T07:28:30.216Z,11.13
2019-04-03T07:31:37.541Z,11.13
2019-04-03T07:34:44.998Z,11.13
2019-04-03T07:37:52.123Z,11.13
2019-04-03T07:40:59.350Z,12.16
2019-04-03T07:44:07.676Z,12.86
2019-04-03T07:47:14.679Z,12.86
2019-04-03T07:50:22.286Z,13.22
2019-04-03T07:53:31.488Z,13.06
2019-04-03T07:56:38.059Z,12.85
2019-04-03T07:59:45.630Z,13.16
2019-04-03T08:02:52.628Z,13.30
2019-04-03T08:06:01.006Z,12.55
2019-04-03T08:09:10.378Z,12.55
2019-04-03T08:12:18.146Z,13.02
2019-04-03T08:15:25.325Z,13.21
2019-04-03T08:18:32.516Z,13.24
2019-04-03T08:21:39.946Z,13.15
2019-04-03T08:24:47.587Z,13.59
2019-04-03T08:27:55.763Z,13.85
2019-04-03T08:31:04.522Z,13.41
2019-04-03T08:34:16.569Z,13.25
2019-04-03T08:37:29.748Z,13.02
2019-04-03T08:40:30.415Z,13.65
2019-04-03T08:43:37.901Z,13.42
2019-04-03T08:46:45.281Z,12.77
2019-04-03T08:49:53.089Z,12.98
2019-04-03T08:53:00.301Z,12.46
2019-04-03T08:56:06.759Z,12.90
2019-04-03T08:59:13.958Z,13.27
2019-04-03T09:02:21.471Z,13.67
2019-04-03T09:05:28.479Z,12.53
2019-04-03T09:08:35.494Z,12.96
2019-04-03T09:11:43.556Z,14.66
2019-04-03T09:14:50.834Z,14.34
2019-04-03T09:17:58.437Z,14.34
2019-04-03T09:21:06.586Z,15.59
2019-04-03T09:24:15.072Z,16.47
2019-04-03T09:27:23.014Z,16.47
2019-04-03T09:30:30.275Z,16.39
2019-04-03T09:33:37.275Z,15.66
2019-04-03T09:36:44.402Z,14.96
2019-04-03T09:39:51.069Z,16.17
2019-04-03T09:42:58.290Z,15.00
2019-04-03T09:46:05.531Z,15.02
2019-04-03T09:49:12.572Z,14.24
2019-04-03T09:52:19.557Z,14.05
2019-04-03T09:55:27.050Z,14.05
2019-04-03T09:58:35.581Z,13.59
2019-04-03T10:01:42.277Z,13.60
2019-04-03T10:04:51.148Z,13.76
2019-04-03T10:07:58.946Z,14.02
2019-04-03T10:11:05.936Z,14.02
2019-04-03T10:46:21.212Z,17.65
2019-04-03T10:49:31.531Z,15.41
2019-04-03T10:52:38.141Z,15.20
2019-04-03T10:55:45.271Z,15.33
2019-04-03T10:58:52.789Z,15.14
2019-04-03T11:02:00.838Z,14.85
2019-04-03T11:05:12.003Z,16.29
2019-04-03T11:08:19.902Z,16.29
2019-04-03T11:11:29.676Z,16.50
2019-04-03T11:14:39.224Z,16.65
2019-04-03T11:17:48.464Z,16.70
2019-04-03T11:20:55.932Z,16.32
2019-04-03T11:24:06.716Z,16.27
2019-04-03T11:27:16.291Z,16.56
2019-04-03T11:30:24.903Z,16.54
2019-04-03T11:33:33.009Z,16.13
2019-04-03T11:36:40.413Z,16.13
2019-04-03T11:39:47.676Z,15.91
2019-04-03T11:42:55.504Z,15.91
2019-04-03T11:46:02.950Z,15.40
2019-04-03T11:49:10.628Z,15.24
2019-04-03T11:52:17.761Z,15.52
2019-04-03T11:55:28.868Z,15.52
2019-04-03T11:58:36.928Z,15.66
2019-04-03T12:01:45.269Z,16.06
2019-04-03T12:04:54.534Z,16.21
2019-04-03T12:08:05.349Z,16.32
2019-04-03T12:11:12.628Z,16.95
2019-04-03T12:14:19.514Z,16.68
2019-04-03T12:17:29.384Z,16.72
2019-04-03T12:20:43.737Z,17.04
2019-04-03T12:23:50.766Z,17.56
2019-04-03T12:26:58.029Z,17.16
2019-04-03T12:30:11.308Z,17.77
2019-04-03T12:33:21.531Z,17.93
2019-04-03T12:36:31.296Z,17.84
2019-04-03T12:39:37.870Z,18.12
2019-04-03T12:42:48.427Z,19.01
2019-04-03T12:45:57.402Z,19.35
2019-04-03T12:49:08.795Z,19.95
2019-04-03T12:52:24.387Z,19.81
2019-04-03T12:55:34.563Z,19.60
2019-04-03T12:58:43.675Z,18.75
2019-04-03T13:01:52.001Z,18.49
2019-04-03T13:05:01.450Z,19.00
2019-04-03T13:08:10.920Z,18.87
2019-04-03T13:11:20.552Z,18.54
2019-04-03T13:14:32.570Z,17.76
2019-04-03T13:17:43.776Z,17.63
2019-04-03T13:20:52.079Z,17.61
2019-04-03T13:24:03.123Z,16.45
2019-04-03T13:27:12.368Z,16.16
2019-04-03T13:30:20.287Z,16.15
2019-04-03T13:33:29.302Z,16.44
2019-04-03T13:36:41.036Z,15.94
2019-04-03T13:39:48.574Z,15.93
2019-04-03T13:42:58.038Z,18.18
2019-04-03T13:46:05.903Z,18.38
2019-04-03T13:49:17.128Z,18.89
2019-04-03T13:52:24.509Z,18.04
2019-04-03T13:55:38.731Z,19.30
2019-04-03T13:58:44.900Z,18.64
2019-04-03T14:01:53.076Z,17.81
2019-04-03T14:05:00.859Z,18.25
2019-04-03T14:08:08.404Z,17.73
2019-04-03T14:11:16.366Z,16.79
2019-04-03T14:14:26.771Z,17.59
2019-04-03T14:17:39.153Z,18.93
2019-04-03T14:20:50.398Z,18.93
2019-04-03T14:24:00.290Z,20.07
2019-04-03T14:27:19.407Z,18.95
2019-04-03T14:30:22.024Z,17.72
2019-04-03T14:33:44.264Z,17.71
2019-04-03T14:36:47.905Z,19.43
2019-04-03T14:39:56.776Z,19.19
2019-04-03T14:43:04.573Z,18.09
2019-04-03T14:46:11.821Z,18.00
2019-04-03T14:49:20.261Z,16.34
2019-04-03T14:52:27.576Z,16.93
2019-04-03T14:55:46.657Z,16.96
2019-04-03T14:58:45.524Z,16.93
2019-04-03T15:01:52.838Z,16.03
2019-04-03T15:05:00.457Z,16.03
2019-04-03T15:08:08.174Z,15.74
2019-04-03T15:11:15.638Z,15.81
2019-04-03T15:14:26.908Z,15.89
2019-04-03T15:17:36.069Z,15.81
2019-04-03T15:20:43.437Z,15.96
2019-04-03T15:23:50.870Z,15.78
2019-04-03T15:26:58.582Z,15.35
2019-04-03T15:30:10.973Z,15.41
2019-04-03T15:36:40.869Z,15.34
2019-04-03T15:39:55.703Z,15.35
2019-04-03T15:42:57.620Z,15.35
2019-04-03T15:46:05.251Z,15.22
2019-04-03T15:49:13.214Z,15.03
2019-04-03T15:52:20.545Z,14.60
2019-04-03T15:55:29.316Z,14.32
2019-04-03T15:58:36.553Z,14.32
2019-04-03T16:01:43.647Z,14.43
2019-04-03T16:04:51.701Z,14.43
2019-04-03T16:07:59.698Z,14.67
2019-04-03T16:11:08.088Z,14.74
2019-04-03T16:14:16.873Z,14.46
2019-04-03T16:17:24.829Z,14.21
2019-04-03T16:20:32.626Z,14.00
2019-04-03T16:23:41.711Z,14.00
2019-04-03T16:26:49.429Z,14.06
2019-04-03T16:29:55.568Z,14.03
2019-04-03T16:33:04.959Z,14.00
2019-04-03T16:36:15.250Z,13.95
2019-04-03T16:39:22.583Z,13.75
2019-04-03T16:42:29.599Z,13.75
2019-04-03T16:45:38.944Z,14.03
2019-04-03T16:48:49.889Z,14.13
2019-04-03T16:51:56.940Z,14.04
2019-04-03T16:55:04.484Z,14.01
2019-04-03T16:58:11.687Z,13.60
2019-04-03T17:01:19.309Z,13.60
2019-04-03T17:04:28.654Z,13.49
2019-04-03T17:07:37.699Z,13.24
2019-04-03T17:10:45.454Z,13.00
2019-04-03T17:13:52.817Z,12.72
2019-04-03T17:16:59.740Z,12.60
2019-04-03T17:20:09.255Z,12.39
2019-04-03T17:23:21.402Z,12.14
2019-04-03T17:26:28.319Z,11.95
2019-04-03T17:29:36.403Z,11.71
2019-04-03T17:32:44.468Z,11.56
2019-04-03T17:35:52.282Z,11.32
2019-04-03T17:39:03.601Z,11.12
2019-04-03T17:42:10.241Z,10.97
2019-04-03T17:45:18.361Z,10.73
2019-04-03T17:48:26.538Z,10.60
2019-04-03T17:51:34.205Z,10.31
2019-04-03T17:54:42.309Z,10.21
2019-04-03T17:57:49.334Z,10.00
2019-04-03T18:00:56.667Z,9.83
2019-04-03T18:04:04.134Z,9.69
2019-04-03T18:07:12.223Z,9.50
2019-04-03T18:10:20.183Z,9.30
2019-04-03T18:13:31.397Z,9.25
2019-04-03T18:16:38.876Z,8.99
2019-04-03T18:19:46.126Z,8.99
2019-04-03T18:22:53.689Z,9.00
2019-04-03T18:26:03.438Z,8.78
2019-04-03T18:29:10.955Z,8.89
2019-04-03T18:32:18.333Z,8.85
2019-04-03T18:35:29.717Z,8.78
2019-04-03T18:38:38.597Z,8.71
2019-04-03T18:41:47.726Z,8.80
2019-04-03T18:44:55.955Z,8.83
2019-04-03T18:48:04.485Z,8.81
2019-04-03T18:51:13.364Z,8.68
2019-04-03T18:54:19.653Z,8.68
2019-04-03T18:57:28.464Z,8.82
2019-04-03T19:00:37.446Z,8.84
2019-04-03T19:03:45.005Z,8.97
2019-04-03T19:06:52.503Z,9.05
2019-04-03T19:10:07.286Z,9.12
2019-04-03T19:13:14.002Z,9.18
2019-04-03T19:16:29.491Z,9.29
2019-04-03T19:19:33.357Z,9.29
2019-04-03T19:22:41.973Z,9.38
2019-04-03T19:25:49.416Z,9.27
2019-04-03T19:29:00.023Z,9.38
2019-04-03T19:32:11.839Z,9.22
2019-04-03T19:35:18.270Z,9.28
2019-04-03T19:38:28.665Z,9.11
2019-04-03T19:41:36.903Z,9.21
2019-04-03T19:44:44.297Z,9.32
2019-04-03T19:47:54.536Z,9.60
2019-04-03T19:51:03.341Z,8.88
2019-04-03T19:54:10.647Z,8.88
2019-04-03T19:57:17.709Z,8.10
2019-04-03T20:00:25.306Z,7.76
2019-04-03T20:03:32.790Z,7.57
2019-04-03T20:06:39.930Z,7.74
2019-04-03T20:09:47.046Z,7.55
2019-04-03T20:12:56.583Z,7.56
2019-04-03T20:16:05.336Z,7.56
2019-04-03T20:19:12.743Z,7.48
2019-04-03T20:22:19.990Z,7.31
2019-04-03T20:25:27.319Z,7.33
2019-04-03T20:28:35.252Z,7.13
2019-04-03T20:31:48.251Z,7.00
2019-04-03T20:34:53.265Z,6.97
2019-04-03T20:38:00.810Z,7.07
2019-04-03T20:41:09.647Z,7.30
2019-04-03T20:44:17.546Z,7.18
2019-04-03T20:47:26.719Z,7.35
2019-04-03T20:50:37.686Z,7.40
2019-04-03T20:53:43.609Z,7.49
2019-04-03T20:56:57.822Z,7.28
2019-04-03T21:00:02.805Z,7.28
2019-04-03T21:03:12.701Z,7.01
2019-04-03T21:06:21.141Z,6.89
2019-04-03T21:09:30.595Z,6.79
2019-04-03T21:12:37.672Z,6.90
2019-04-03T21:15:45.591Z,6.69
2019-04-03T21:18:53.936Z,6.55
2019-04-03T21:22:00.937Z,6.53
2019-04-03T21:25:08.758Z,6.38
2019-04-03T21:28:15.807Z,6.23
2019-04-03T21:31:25.618Z,6.12
2019-04-03T21:34:33.753Z,6.11
2019-04-03T21:37:41.120Z,6.02
2019-04-03T21:40:48.332Z,5.98
2019-04-03T21:43:55.576Z,5.98
2019-04-03T21:47:04.430Z,5.94
2019-04-03T21:50:11.777Z,5.72
2019-04-03T21:53:18.873Z,5.72
2019-04-03T21:56:25.693Z,5.60
2019-04-03T21:59:32.539Z,5.31
2019-04-03T22:02:40.686Z,5.17
2019-04-03T22:05:48.061Z,5.17
2019-04-03T22:08:55.411Z,4.98
2019-04-03T22:12:05.891Z,5.00
2019-04-03T22:15:14.557Z,4.76
2019-04-03T22:18:23.783Z,4.76
2019-04-03T22:21:32.514Z,4.71
2019-04-03T22:24:40.858Z,4.50
2019-04-03T22:27:47.954Z,4.52
2019-04-03T22:30:55.113Z,4.18
2019-04-03T22:34:02.290Z,4.18
2019-04-03T22:37:09.327Z,4.15
2019-04-03T22:40:16.285Z,4.08
2019-04-03T22:43:23.284Z,3.93
2019-04-03T22:46:30.441Z,3.85
2019-04-03T22:49:37.608Z,3.77
2019-04-03T22:52:46.295Z,3.77
2019-04-03T22:55:53.347Z,3.63
2019-04-03T22:59:00.640Z,3.53
2019-04-03T23:02:08.648Z,3.49
2019-04-03T23:05:17.171Z,3.49
2019-04-03T23:08:25.251Z,3.31
2019-04-03T23:11:32.950Z,3.28
2019-04-03T23:14:40.554Z,3.17
2019-04-03T23:17:48.110Z,3.17
2019-04-03T23:20:55.932Z,3.17
2019-04-03T23:24:03.102Z,3.15
2019-04-03T23:27:10.461Z,3.15
2019-04-03T23:30:18.881Z,3.18
2019-04-03T23:33:26.331Z,3.10
2019-04-03T23:36:34.046Z,3.10
2019-04-03T23:39:41.365Z,3.08
2019-04-03T23:42:48.369Z,3.09
2019-04-03T23:45:55.407Z,3.09
2019-04-03T23:49:02.283Z,3.05
2019-04-03T23:52:09.627Z,3.01
2019-04-03T23:55:16.734Z,2.97
2019-04-03T23:58:25.264Z,2.98
